sensor_id;sensor_type;location;lat;lon;timestamp;P1;durP1;ratioP1;P2;durP2;ratioP2
27383;SDS011;14851;51.166;4.760;2023-05-29T00:01:48;13.90;;;7.10;;
27383;SDS011;14851;51.166;4.760;2023-05-29T00:04:19;11.57;;;6.60;;
27383;SDS011;14851;51.166;4.760;2023-05-29T00:06:46;11.87;;;6.50;;
27383;SDS011;14851;51.166;4.760;2023-05-29T00:09:12;10.27;;;6.45;;
27383;SDS011;14851;51.166;4.760;2023-05-29T00:11:41;11.52;;;6.90;;
27383;SDS011;14851;51.166;4.760;2023-05-29T00:14:06;13.05;;;6.32;;
27383;SDS011;14851;51.166;4.760;2023-05-29T00:16:32;14.57;;;7.00;;
27383;SDS011;14851;51.166;4.760;2023-05-29T00:19:05;13.38;;;7.15;;
27383;SDS011;14851;51.166;4.760;2023-05-29T00:21:33;10.23;;;6.07;;
27383;SDS011;14851;51.166;4.760;2023-05-29T00:23:59;11.38;;;6.65;;
27383;SDS011;14851;51.166;4.760;2023-05-29T00:26:26;10.00;;;6.22;;
27383;SDS011;14851;51.166;4.760;2023-05-29T00:28:54;10.65;;;6.72;;
27383;SDS011;14851;51.166;4.760;2023-05-29T00:31:19;13.55;;;6.55;;
27383;SDS011;14851;51.166;4.760;2023-05-29T00:33:46;13.48;;;6.53;;
27383;SDS011;14851;51.166;4.760;2023-05-29T00:36:12;11.50;;;6.30;;
27383;SDS011;14851;51.166;4.760;2023-05-29T00:38:37;12.02;;;6.72;;
27383;SDS011;14851;51.166;4.760;2023-05-29T00:41:03;13.23;;;6.50;;
27383;SDS011;14851;51.166;4.760;2023-05-29T00:43:32;16.80;;;6.57;;
27383;SDS011;14851;51.166;4.760;2023-05-29T00:46:00;11.75;;;6.70;;
27383;SDS011;14851;51.166;4.760;2023-05-29T00:48:26;11.23;;;6.80;;
27383;SDS011;14851;51.166;4.760;2023-05-29T00:50:52;13.45;;;6.38;;
27383;SDS011;14851;51.166;4.760;2023-05-29T00:53:17;10.85;;;6.35;;
27383;SDS011;14851;51.166;4.760;2023-05-29T00:55:46;11.95;;;6.40;;
27383;SDS011;14851;51.166;4.760;2023-05-29T00:58:14;12.40;;;6.30;;
27383;SDS011;14851;51.166;4.760;2023-05-29T01:00:40;12.63;;;6.75;;
27383;SDS011;14851;51.166;4.760;2023-05-29T01:03:08;12.48;;;6.53;;
27383;SDS011;14851;51.166;4.760;2023-05-29T01:05:35;10.10;;;6.47;;
27383;SDS011;14851;51.166;4.760;2023-05-29T01:08:02;14.18;;;6.10;;
27383;SDS011;14851;51.166;4.760;2023-05-29T01:10:28;11.25;;;6.03;;
27383;SDS011;14851;51.166;4.760;2023-05-29T01:12:57;15.27;;;5.90;;
27383;SDS011;14851;51.166;4.760;2023-05-29T01:18:51;15.15;;;6.20;;
27383;SDS011;14851;51.166;4.760;2023-05-29T01:27:24;13.80;;;5.65;;
27383;SDS011;14851;51.166;4.760;2023-05-29T01:29:34;11.70;;;4.85;;
27383;SDS011;14851;51.166;4.760;2023-05-29T01:32:03;14.02;;;4.43;;
27383;SDS011;14851;51.166;4.760;2023-05-29T01:34:30;13.90;;;5.05;;
27383;SDS011;14851;51.166;4.760;2023-05-29T01:36:56;10.48;;;4.22;;
27383;SDS011;14851;51.166;4.760;2023-05-29T01:39:22;13.52;;;4.03;;
27383;SDS011;14851;51.166;4.760;2023-05-29T01:41:55;14.23;;;4.90;;
27383;SDS011;14851;51.166;4.760;2023-05-29T01:44:23;13.90;;;4.57;;
27383;SDS011;14851;51.166;4.760;2023-05-29T01:46:51;15.50;;;4.50;;
27383;SDS011;14851;51.166;4.760;2023-05-29T01:49:19;16.45;;;4.80;;
27383;SDS011;14851;51.166;4.760;2023-05-29T01:51:48;14.45;;;4.43;;
27383;SDS011;14851;51.166;4.760;2023-05-29T01:54:14;15.63;;;4.00;;
27383;SDS011;14851;51.166;4.760;2023-05-29T01:56:41;12.02;;;4.65;;
27383;SDS011;14851;51.166;4.760;2023-05-29T01:59:07;14.40;;;3.95;;
27383;SDS011;14851;51.166;4.760;2023-05-29T02:01:35;14.82;;;4.05;;
27383;SDS011;14851;51.166;4.760;2023-05-29T02:04:04;11.43;;;3.42;;
27383;SDS011;14851;51.166;4.760;2023-05-29T02:06:33;13.13;;;3.85;;
27383;SDS011;14851;51.166;4.760;2023-05-29T02:08:59;12.82;;;3.60;;
27383;SDS011;14851;51.166;4.760;2023-05-29T02:11:27;9.07;;;3.05;;
27383;SDS011;14851;51.166;4.760;2023-05-29T02:13:55;12.18;;;3.30;;
27383;SDS011;14851;51.166;4.760;2023-05-29T02:16:24;11.27;;;3.03;;
27383;SDS011;14851;51.166;4.760;2023-05-29T02:18:53;11.05;;;3.00;;
27383;SDS011;14851;51.166;4.760;2023-05-29T02:21:21;8.68;;;2.80;;
27383;SDS011;14851;51.166;4.760;2023-05-29T02:23:47;14.25;;;3.88;;
27383;SDS011;14851;51.166;4.760;2023-05-29T02:26:17;13.48;;;3.30;;
27383;SDS011;14851;51.166;4.760;2023-05-29T02:28:45;12.30;;;3.63;;
27383;SDS011;14851;51.166;4.760;2023-05-29T02:31:12;14.82;;;3.05;;
27383;SDS011;14851;51.166;4.760;2023-05-29T02:33:38;12.15;;;3.20;;
27383;SDS011;14851;51.166;4.760;2023-05-29T02:36:07;11.77;;;3.53;;
27383;SDS011;14851;51.166;4.760;2023-05-29T02:38:37;10.43;;;3.30;;
27383;SDS011;14851;51.166;4.760;2023-05-29T02:41:05;12.75;;;3.15;;
27383;SDS011;14851;51.166;4.760;2023-05-29T02:43:34;11.48;;;2.72;;
27383;SDS011;14851;51.166;4.760;2023-05-29T02:46:02;11.10;;;3.30;;
27383;SDS011;14851;51.166;4.760;2023-05-29T02:48:28;15.52;;;3.67;;
27383;SDS011;14851;51.166;4.760;2023-05-29T02:50:56;11.13;;;2.90;;
27383;SDS011;14851;51.166;4.760;2023-05-29T02:53:23;13.25;;;2.97;;
27383;SDS011;14851;51.166;4.760;2023-05-29T02:55:49;16.52;;;2.88;;
27383;SDS011;14851;51.166;4.760;2023-05-29T02:58:16;10.30;;;2.95;;
27383;SDS011;14851;51.166;4.760;2023-05-29T03:00:42;12.48;;;3.20;;
27383;SDS011;14851;51.166;4.760;2023-05-29T03:03:08;11.90;;;2.88;;
27383;SDS011;14851;51.166;4.760;2023-05-29T03:05:37;14.87;;;3.27;;
27383;SDS011;14851;51.166;4.760;2023-05-29T03:08:03;13.00;;;3.35;;
27383;SDS011;14851;51.166;4.760;2023-05-29T03:10:29;16.92;;;3.28;;
27383;SDS011;14851;51.166;4.760;2023-05-29T03:12:55;10.35;;;2.97;;
27383;SDS011;14851;51.166;4.760;2023-05-29T03:15:21;15.77;;;3.45;;
27383;SDS011;14851;51.166;4.760;2023-05-29T03:17:48;10.13;;;3.35;;
27383;SDS011;14851;51.166;4.760;2023-05-29T03:22:44;10.50;;;2.78;;
27383;SDS011;14851;51.166;4.760;2023-05-29T03:25:10;13.02;;;3.50;;
27383;SDS011;14851;51.166;4.760;2023-05-29T03:27:37;13.40;;;2.45;;
27383;SDS011;14851;51.166;4.760;2023-05-29T03:30:08;14.20;;;4.05;;
27383;SDS011;14851;51.166;4.760;2023-05-29T03:32:36;16.42;;;3.17;;
27383;SDS011;14851;51.166;4.760;2023-05-29T03:35:02;14.55;;;4.13;;
27383;SDS011;14851;51.166;4.760;2023-05-29T03:37:29;13.02;;;3.13;;
27383;SDS011;14851;51.166;4.760;2023-05-29T03:39:55;13.00;;;3.78;;
27383;SDS011;14851;51.166;4.760;2023-05-29T03:42:22;12.38;;;2.78;;
27383;SDS011;14851;51.166;4.760;2023-05-29T03:44:49;9.55;;;2.88;;
27383;SDS011;14851;51.166;4.760;2023-05-29T03:47:15;13.02;;;3.17;;
27383;SDS011;14851;51.166;4.760;2023-05-29T03:49:46;13.65;;;2.85;;
27383;SDS011;14851;51.166;4.760;2023-05-29T03:54:37;12.80;;;3.22;;
27383;SDS011;14851;51.166;4.760;2023-05-29T03:57:04;10.00;;;3.13;;
27383;SDS011;14851;51.166;4.760;2023-05-29T03:59:32;12.93;;;3.38;;
27383;SDS011;14851;51.166;4.760;2023-05-29T04:01:58;14.98;;;3.50;;
27383;SDS011;14851;51.166;4.760;2023-05-29T04:04:24;12.43;;;2.95;;
27383;SDS011;14851;51.166;4.760;2023-05-29T04:06:49;14.15;;;4.03;;
27383;SDS011;14851;51.166;4.760;2023-05-29T04:09:17;15.82;;;3.15;;
27383;SDS011;14851;51.166;4.760;2023-05-29T04:11:45;18.75;;;3.45;;
27383;SDS011;14851;51.166;4.760;2023-05-29T04:14:14;14.15;;;3.13;;
27383;SDS011;14851;51.166;4.760;2023-05-29T04:16:40;13.82;;;3.03;;
27383;SDS011;14851;51.166;4.760;2023-05-29T04:19:07;15.10;;;3.45;;
27383;SDS011;14851;51.166;4.760;2023-05-29T04:21:33;14.52;;;3.38;;
27383;SDS011;14851;51.166;4.760;2023-05-29T04:24:00;10.73;;;2.97;;
27383;SDS011;14851;51.166;4.760;2023-05-29T04:26:29;14.45;;;3.22;;
27383;SDS011;14851;51.166;4.760;2023-05-29T04:28:57;17.05;;;3.83;;
27383;SDS011;14851;51.166;4.760;2023-05-29T04:31:24;11.55;;;3.25;;
27383;SDS011;14851;51.166;4.760;2023-05-29T04:33:52;13.82;;;3.50;;
27383;SDS011;14851;51.166;4.760;2023-05-29T04:36:27;13.27;;;3.22;;
27383;SDS011;14851;51.166;4.760;2023-05-29T04:39:05;14.10;;;3.00;;
27383;SDS011;14851;51.166;4.760;2023-05-29T04:41:34;13.85;;;3.38;;
27383;SDS011;14851;51.166;4.760;2023-05-29T04:44:02;14.98;;;3.33;;
27383;SDS011;14851;51.166;4.760;2023-05-29T04:46:37;17.70;;;3.92;;
27383;SDS011;14851;51.166;4.760;2023-05-29T04:49:04;16.88;;;3.28;;
27383;SDS011;14851;51.166;4.760;2023-05-29T04:51:30;18.90;;;4.45;;
27383;SDS011;14851;51.166;4.760;2023-05-29T04:53:57;17.05;;;3.45;;
27383;SDS011;14851;51.166;4.760;2023-05-29T04:56:23;15.13;;;3.00;;
27383;SDS011;14851;51.166;4.760;2023-05-29T04:58:49;15.40;;;3.63;;
27383;SDS011;14851;51.166;4.760;2023-05-29T05:01:16;16.70;;;3.72;;
27383;SDS011;14851;51.166;4.760;2023-05-29T05:03:42;13.38;;;2.78;;
27383;SDS011;14851;51.166;4.760;2023-05-29T05:06:09;13.77;;;3.88;;
27383;SDS011;14851;51.166;4.760;2023-05-29T05:08:38;15.30;;;4.07;;
27383;SDS011;14851;51.166;4.760;2023-05-29T05:11:06;15.90;;;3.53;;
27383;SDS011;14851;51.166;4.760;2023-05-29T05:13:35;16.98;;;3.90;;
27383;SDS011;14851;51.166;4.760;2023-05-29T05:16:00;18.25;;;3.17;;
27383;SDS011;14851;51.166;4.760;2023-05-29T05:18:30;16.77;;;3.47;;
27383;SDS011;14851;51.166;4.760;2023-05-29T05:21:05;17.25;;;3.60;;
27383;SDS011;14851;51.166;4.760;2023-05-29T05:23:33;17.30;;;4.28;;
27383;SDS011;14851;51.166;4.760;2023-05-29T05:26:01;17.48;;;5.28;;
27383;SDS011;14851;51.166;4.760;2023-05-29T05:28:29;19.83;;;3.65;;
27383;SDS011;14851;51.166;4.760;2023-05-29T05:30:55;14.73;;;3.50;;
27383;SDS011;14851;51.166;4.760;2023-05-29T05:33:22;12.77;;;2.88;;
27383;SDS011;14851;51.166;4.760;2023-05-29T05:35:48;15.13;;;3.65;;
27383;SDS011;14851;51.166;4.760;2023-05-29T05:38:17;15.05;;;3.33;;
27383;SDS011;14851;51.166;4.760;2023-05-29T05:40:42;17.90;;;4.13;;
27383;SDS011;14851;51.166;4.760;2023-05-29T05:43:21;15.23;;;3.70;;
27383;SDS011;14851;51.166;4.760;2023-05-29T05:46:01;17.17;;;3.88;;
27383;SDS011;14851;51.166;4.760;2023-05-29T05:48:28;13.73;;;3.38;;
27383;SDS011;14851;51.166;4.760;2023-05-29T05:50:55;10.38;;;2.60;;
27383;SDS011;14851;51.166;4.760;2023-05-29T05:53:22;15.05;;;2.92;;
27383;SDS011;14851;51.166;4.760;2023-05-29T05:55:48;18.33;;;3.30;;
27383;SDS011;14851;51.166;4.760;2023-05-29T05:58:14;15.20;;;3.33;;
27383;SDS011;14851;51.166;4.760;2023-05-29T06:00:41;16.75;;;3.72;;
27383;SDS011;14851;51.166;4.760;2023-05-29T06:03:09;13.95;;;3.22;;
27383;SDS011;14851;51.166;4.760;2023-05-29T06:05:55;16.02;;;3.17;;
27383;SDS011;14851;51.166;4.760;2023-05-29T06:08:21;13.98;;;3.80;;
27383;SDS011;14851;51.166;4.760;2023-05-29T06:10:47;16.38;;;3.67;;
27383;SDS011;14851;51.166;4.760;2023-05-29T06:13:17;18.02;;;3.92;;
27383;SDS011;14851;51.166;4.760;2023-05-29T06:15:50;14.57;;;3.85;;
27383;SDS011;14851;51.166;4.760;2023-05-29T06:18:16;11.18;;;2.97;;
27383;SDS011;14851;51.166;4.760;2023-05-29T06:20:44;12.65;;;3.30;;
27383;SDS011;14851;51.166;4.760;2023-05-29T06:23:12;10.68;;;3.00;;
27383;SDS011;14851;51.166;4.760;2023-05-29T06:28:09;14.20;;;3.67;;
27383;SDS011;14851;51.166;4.760;2023-05-29T06:30:35;12.57;;;3.17;;
27383;SDS011;14851;51.166;4.760;2023-05-29T06:33:05;15.45;;;3.42;;
27383;SDS011;14851;51.166;4.760;2023-05-29T06:35:31;11.90;;;3.05;;
27383;SDS011;14851;51.166;4.760;2023-05-29T06:37:57;12.32;;;2.83;;
27383;SDS011;14851;51.166;4.760;2023-05-29T06:40:24;18.20;;;3.45;;
27383;SDS011;14851;51.166;4.760;2023-05-29T06:42:50;15.65;;;3.30;;
27383;SDS011;14851;51.166;4.760;2023-05-29T06:45:16;16.25;;;3.30;;
27383;SDS011;14851;51.166;4.760;2023-05-29T06:47:44;15.95;;;3.47;;
27383;SDS011;14851;51.166;4.760;2023-05-29T06:50:10;16.92;;;3.58;;
27383;SDS011;14851;51.166;4.760;2023-05-29T06:52:37;17.98;;;4.20;;
27383;SDS011;14851;51.166;4.760;2023-05-29T06:55:24;12.82;;;3.17;;
27383;SDS011;14851;51.166;4.760;2023-05-29T06:57:52;14.35;;;2.95;;
27383;SDS011;14851;51.166;4.760;2023-05-29T07:00:19;14.20;;;2.90;;
27383;SDS011;14851;51.166;4.760;2023-05-29T07:02:55;14.88;;;3.60;;
27383;SDS011;14851;51.166;4.760;2023-05-29T07:05:21;11.98;;;2.88;;
27383;SDS011;14851;51.166;4.760;2023-05-29T07:08:10;16.02;;;3.42;;
27383;SDS011;14851;51.166;4.760;2023-05-29T07:10:36;11.25;;;2.78;;
27383;SDS011;14851;51.166;4.760;2023-05-29T07:13:04;17.38;;;3.15;;
27383;SDS011;14851;51.166;4.760;2023-05-29T07:15:31;18.10;;;4.10;;
27383;SDS011;14851;51.166;4.760;2023-05-29T07:17:58;13.02;;;2.97;;
27383;SDS011;14851;51.166;4.760;2023-05-29T07:20:26;13.82;;;2.78;;
27383;SDS011;14851;51.166;4.760;2023-05-29T07:22:52;16.52;;;3.53;;
27383;SDS011;14851;51.166;4.760;2023-05-29T07:25:18;11.70;;;3.00;;
27383;SDS011;14851;51.166;4.760;2023-05-29T07:27:47;14.52;;;3.22;;
27383;SDS011;14851;51.166;4.760;2023-05-29T07:30:13;16.13;;;3.13;;
27383;SDS011;14851;51.166;4.760;2023-05-29T07:32:39;16.27;;;3.45;;
27383;SDS011;14851;51.166;4.760;2023-05-29T07:35:05;16.13;;;3.40;;
27383;SDS011;14851;51.166;4.760;2023-05-29T07:37:34;13.43;;;3.30;;
27383;SDS011;14851;51.166;4.760;2023-05-29T07:40:04;16.85;;;3.55;;
27383;SDS011;14851;51.166;4.760;2023-05-29T07:42:49;13.00;;;3.42;;
27383;SDS011;14851;51.166;4.760;2023-05-29T07:45:16;13.85;;;2.63;;
27383;SDS011;14851;51.166;4.760;2023-05-29T07:47:42;16.67;;;4.05;;
27383;SDS011;14851;51.166;4.760;2023-05-29T07:50:09;14.50;;;3.55;;
27383;SDS011;14851;51.166;4.760;2023-05-29T07:52:35;15.57;;;3.05;;
27383;SDS011;14851;51.166;4.760;2023-05-29T07:55:01;16.02;;;3.45;;
27383;SDS011;14851;51.166;4.760;2023-05-29T07:57:28;11.80;;;2.55;;
27383;SDS011;14851;51.166;4.760;2023-05-29T07:59:58;12.00;;;3.17;;
27383;SDS011;14851;51.166;4.760;2023-05-29T08:02:24;13.90;;;3.30;;
27383;SDS011;14851;51.166;4.760;2023-05-29T08:05:15;20.15;;;3.35;;
27383;SDS011;14851;51.166;4.760;2023-05-29T08:07:47;14.35;;;3.08;;
27383;SDS011;14851;51.166;4.760;2023-05-29T08:10:13;13.25;;;3.35;;
27383;SDS011;14851;51.166;4.760;2023-05-29T08:12:40;14.65;;;3.60;;
27383;SDS011;14851;51.166;4.760;2023-05-29T08:15:07;17.35;;;3.15;;
27383;SDS011;14851;51.166;4.760;2023-05-29T08:17:36;13.18;;;3.38;;
27383;SDS011;14851;51.166;4.760;2023-05-29T08:20:01;15.32;;;3.47;;
27383;SDS011;14851;51.166;4.760;2023-05-29T08:22:32;14.68;;;3.88;;
27383;SDS011;14851;51.166;4.760;2023-05-29T08:24:59;8.85;;;2.50;;
27383;SDS011;14851;51.166;4.760;2023-05-29T08:27:27;13.15;;;3.22;;
27383;SDS011;14851;51.166;4.760;2023-05-29T08:29:53;12.55;;;2.88;;
27383;SDS011;14851;51.166;4.760;2023-05-29T08:32:19;11.07;;;2.75;;
27383;SDS011;14851;51.166;4.760;2023-05-29T08:34:46;10.55;;;2.45;;
27383;SDS011;14851;51.166;4.760;2023-05-29T08:37:13;13.88;;;3.00;;
27383;SDS011;14851;51.166;4.760;2023-05-29T08:39:39;13.82;;;2.83;;
27383;SDS011;14851;51.166;4.760;2023-05-29T08:42:10;17.80;;;3.28;;
27383;SDS011;14851;51.166;4.760;2023-05-29T08:44:40;15.30;;;2.78;;
27383;SDS011;14851;51.166;4.760;2023-05-29T08:47:08;15.82;;;3.20;;
27383;SDS011;14851;51.166;4.760;2023-05-29T08:49:43;12.35;;;2.78;;
27383;SDS011;14851;51.166;4.760;2023-05-29T08:52:16;15.63;;;2.72;;
27383;SDS011;14851;51.166;4.760;2023-05-29T08:54:55;14.35;;;3.40;;
27383;SDS011;14851;51.166;4.760;2023-05-29T08:57:23;12.20;;;2.45;;
27383;SDS011;14851;51.166;4.760;2023-05-29T08:59:53;8.50;;;2.35;;
27383;SDS011;14851;51.166;4.760;2023-05-29T09:02:21;11.82;;;2.58;;
27383;SDS011;14851;51.166;4.760;2023-05-29T09:04:47;11.05;;;3.20;;
27383;SDS011;14851;51.166;4.760;2023-05-29T09:07:14;10.65;;;2.35;;
27383;SDS011;14851;51.166;4.760;2023-05-29T09:09:41;13.65;;;2.67;;
27383;SDS011;14851;51.166;4.760;2023-05-29T09:12:07;10.50;;;2.90;;
27383;SDS011;14851;51.166;4.760;2023-05-29T09:14:35;10.02;;;2.42;;
27383;SDS011;14851;51.166;4.760;2023-05-29T09:17:03;10.93;;;2.55;;
27383;SDS011;14851;51.166;4.760;2023-05-29T09:19:30;13.15;;;3.08;;
27383;SDS011;14851;51.166;4.760;2023-05-29T09:22:03;11.23;;;3.00;;
27383;SDS011;14851;51.166;4.760;2023-05-29T09:24:36;10.55;;;2.53;;
27383;SDS011;14851;51.166;4.760;2023-05-29T09:27:03;9.93;;;2.45;;
27383;SDS011;14851;51.166;4.760;2023-05-29T09:29:35;15.82;;;3.15;;
27383;SDS011;14851;51.166;4.760;2023-05-29T09:32:07;15.48;;;3.20;;
27383;SDS011;14851;51.166;4.760;2023-05-29T09:34:34;10.57;;;2.63;;
27383;SDS011;14851;51.166;4.760;2023-05-29T09:37:00;11.07;;;2.78;;
27383;SDS011;14851;51.166;4.760;2023-05-29T09:39:33;13.73;;;2.70;;
27383;SDS011;14851;51.166;4.760;2023-05-29T09:42:12;11.63;;;2.40;;
27383;SDS011;14851;51.166;4.760;2023-05-29T09:44:42;10.32;;;2.70;;
27383;SDS011;14851;51.166;4.760;2023-05-29T09:47:18;12.60;;;2.45;;
27383;SDS011;14851;51.166;4.760;2023-05-29T09:49:45;10.35;;;2.40;;
27383;SDS011;14851;51.166;4.760;2023-05-29T09:52:12;11.73;;;2.60;;
27383;SDS011;14851;51.166;4.760;2023-05-29T09:54:42;8.20;;;2.53;;
27383;SDS011;14851;51.166;4.760;2023-05-29T09:57:12;7.28;;;2.63;;
27383;SDS011;14851;51.166;4.760;2023-05-29T09:59:43;15.33;;;3.37;;
27383;SDS011;14851;51.166;4.760;2023-05-29T10:02:10;8.05;;;2.10;;
27383;SDS011;14851;51.166;4.760;2023-05-29T10:04:39;9.98;;;3.10;;
27383;SDS011;14851;51.166;4.760;2023-05-29T10:07:12;16.35;;;2.97;;
27383;SDS011;14851;51.166;4.760;2023-05-29T10:09:54;8.25;;;2.55;;
27383;SDS011;14851;51.166;4.760;2023-05-29T10:12:26;7.97;;;2.13;;
27383;SDS011;14851;51.166;4.760;2023-05-29T10:14:56;7.65;;;2.10;;
27383;SDS011;14851;51.166;4.760;2023-05-29T10:17:25;10.55;;;2.95;;
27383;SDS011;14851;51.166;4.760;2023-05-29T10:19:57;8.88;;;2.47;;
27383;SDS011;14851;51.166;4.760;2023-05-29T10:22:27;10.70;;;2.60;;
27383;SDS011;14851;51.166;4.760;2023-05-29T10:24:58;11.07;;;2.92;;
27383;SDS011;14851;51.166;4.760;2023-05-29T10:27:25;11.98;;;3.13;;
27383;SDS011;14851;51.166;4.760;2023-05-29T10:29:53;12.00;;;2.72;;
27383;SDS011;14851;51.166;4.760;2023-05-29T10:32:52;13.25;;;2.75;;
27383;SDS011;14851;51.166;4.760;2023-05-29T10:38:24;12.80;;;2.83;;
27383;SDS011;14851;51.166;4.760;2023-05-29T10:40:51;9.60;;;2.67;;
27383;SDS011;14851;51.166;4.760;2023-05-29T10:43:29;9.15;;;2.72;;
27383;SDS011;14851;51.166;4.760;2023-05-29T10:46:00;11.30;;;2.78;;
27383;SDS011;14851;51.166;4.760;2023-05-29T10:50:56;9.25;;;2.58;;
27383;SDS011;14851;51.166;4.760;2023-05-29T10:53:23;9.55;;;2.30;;
27383;SDS011;14851;51.166;4.760;2023-05-29T10:55:51;10.25;;;2.50;;
27383;SDS011;14851;51.166;4.760;2023-05-29T10:58:18;9.48;;;2.20;;
27383;SDS011;14851;51.166;4.760;2023-05-29T11:00:46;12.20;;;2.67;;
27383;SDS011;14851;51.166;4.760;2023-05-29T11:03:22;9.27;;;2.60;;
27383;SDS011;14851;51.166;4.760;2023-05-29T11:06:02;10.18;;;3.30;;
27383;SDS011;14851;51.166;4.760;2023-05-29T11:08:34;6.78;;;2.33;;
27383;SDS011;14851;51.166;4.760;2023-05-29T11:11:35;8.18;;;2.95;;
27383;SDS011;14851;51.166;4.760;2023-05-29T11:14:04;8.63;;;2.35;;
27383;SDS011;14851;51.166;4.760;2023-05-29T11:18:58;11.52;;;2.67;;
27383;SDS011;14851;51.166;4.760;2023-05-29T11:24:03;10.45;;;3.00;;
27383;SDS011;14851;51.166;4.760;2023-05-29T11:26:32;8.55;;;2.72;;
27383;SDS011;14851;51.166;4.760;2023-05-29T11:29:03;8.50;;;2.50;;
27383;SDS011;14851;51.166;4.760;2023-05-29T11:31:34;14.07;;;2.42;;
27383;SDS011;14851;51.166;4.760;2023-05-29T11:34:03;9.90;;;2.60;;
27383;SDS011;14851;51.166;4.760;2023-05-29T11:36:32;9.55;;;2.70;;
27383;SDS011;14851;51.166;4.760;2023-05-29T11:39:02;9.93;;;2.67;;
27383;SDS011;14851;51.166;4.760;2023-05-29T11:41:29;12.48;;;3.35;;
27383;SDS011;14851;51.166;4.760;2023-05-29T11:43:59;11.25;;;3.22;;
27383;SDS011;14851;51.166;4.760;2023-05-29T11:46:27;9.50;;;2.50;;
27383;SDS011;14851;51.166;4.760;2023-05-29T11:48:56;7.97;;;2.58;;
27383;SDS011;14851;51.166;4.760;2023-05-29T11:51:22;11.25;;;2.90;;
27383;SDS011;14851;51.166;4.760;2023-05-29T11:53:48;10.50;;;2.55;;
27383;SDS011;14851;51.166;4.760;2023-05-29T11:56:18;9.40;;;2.60;;
27383;SDS011;14851;51.166;4.760;2023-05-29T11:58:46;9.25;;;2.03;;
27383;SDS011;14851;51.166;4.760;2023-05-29T12:01:16;9.38;;;2.63;;
27383;SDS011;14851;51.166;4.760;2023-05-29T12:03:44;8.90;;;2.85;;
27383;SDS011;14851;51.166;4.760;2023-05-29T12:06:10;5.70;;;1.75;;
27383;SDS011;14851;51.166;4.760;2023-05-29T12:08:37;7.65;;;2.45;;
27383;SDS011;14851;51.166;4.760;2023-05-29T12:11:05;14.90;;;2.80;;
27383;SDS011;14851;51.166;4.760;2023-05-29T12:13:31;12.27;;;2.90;;
27383;SDS011;14851;51.166;4.760;2023-05-29T12:16:01;11.43;;;2.78;;
27383;SDS011;14851;51.166;4.760;2023-05-29T12:18:35;9.10;;;2.38;;
27383;SDS011;14851;51.166;4.760;2023-05-29T12:21:03;7.00;;;2.47;;
27383;SDS011;14851;51.166;4.760;2023-05-29T12:23:31;8.45;;;2.90;;
27383;SDS011;14851;51.166;4.760;2023-05-29T12:26:00;7.65;;;2.38;;
27383;SDS011;14851;51.166;4.760;2023-05-29T12:28:26;7.45;;;2.17;;
27383;SDS011;14851;51.166;4.760;2023-05-29T12:30:57;8.23;;;2.65;;
27383;SDS011;14851;51.166;4.760;2023-05-29T12:33:25;12.25;;;3.42;;
27383;SDS011;14851;51.166;4.760;2023-05-29T12:36:05;8.93;;;2.55;;
27383;SDS011;14851;51.166;4.760;2023-05-29T12:38:50;7.60;;;3.00;;
27383;SDS011;14851;51.166;4.760;2023-05-29T12:41:29;7.43;;;2.63;;
27383;SDS011;14851;51.166;4.760;2023-05-29T12:43:58;9.70;;;2.78;;
27383;SDS011;14851;51.166;4.760;2023-05-29T12:46:26;8.05;;;2.30;;
27383;SDS011;14851;51.166;4.760;2023-05-29T12:48:53;8.80;;;2.47;;
27383;SDS011;14851;51.166;4.760;2023-05-29T12:51:24;11.48;;;2.53;;
27383;SDS011;14851;51.166;4.760;2023-05-29T12:53:53;8.32;;;2.58;;
27383;SDS011;14851;51.166;4.760;2023-05-29T12:56:24;4.90;;;1.70;;
27383;SDS011;14851;51.166;4.760;2023-05-29T12:58:51;11.43;;;2.97;;
27383;SDS011;14851;51.166;4.760;2023-05-29T13:01:17;13.38;;;2.85;;
27383;SDS011;14851;51.166;4.760;2023-05-29T13:03:43;6.03;;;2.00;;
27383;SDS011;14851;51.166;4.760;2023-05-29T13:06:11;10.43;;;2.70;;
27383;SDS011;14851;51.166;4.760;2023-05-29T13:08:37;12.30;;;2.45;;
27383;SDS011;14851;51.166;4.760;2023-05-29T13:11:05;8.90;;;2.50;;
27383;SDS011;14851;51.166;4.760;2023-05-29T13:13:31;6.28;;;2.15;;
27383;SDS011;14851;51.166;4.760;2023-05-29T13:15:57;8.93;;;2.55;;
27383;SDS011;14851;51.166;4.760;2023-05-29T13:18:25;7.22;;;2.38;;
27383;SDS011;14851;51.166;4.760;2023-05-29T13:20:50;11.15;;;3.20;;
27383;SDS011;14851;51.166;4.760;2023-05-29T13:23:20;8.00;;;2.15;;
27383;SDS011;14851;51.166;4.760;2023-05-29T13:25:46;10.15;;;2.88;;
27383;SDS011;14851;51.166;4.760;2023-05-29T13:28:15;8.82;;;2.30;;
27383;SDS011;14851;51.166;4.760;2023-05-29T13:30:41;7.72;;;2.42;;
27383;SDS011;14851;51.166;4.760;2023-05-29T13:33:07;9.55;;;2.95;;
27383;SDS011;14851;51.166;4.760;2023-05-29T13:35:33;8.10;;;2.40;;
27383;SDS011;14851;51.166;4.760;2023-05-29T13:38:00;7.95;;;2.40;;
27383;SDS011;14851;51.166;4.760;2023-05-29T13:40:30;7.50;;;2.92;;
27383;SDS011;14851;51.166;4.760;2023-05-29T13:42:57;7.72;;;3.10;;
27383;SDS011;14851;51.166;4.760;2023-05-29T13:45:23;10.45;;;3.25;;
27383;SDS011;14851;51.166;4.760;2023-05-29T13:47:49;7.88;;;2.53;;
27383;SDS011;14851;51.166;4.760;2023-05-29T13:50:17;9.02;;;2.38;;
27383;SDS011;14851;51.166;4.760;2023-05-29T13:52:43;8.48;;;2.17;;
27383;SDS011;14851;51.166;4.760;2023-05-29T13:55:09;8.07;;;2.70;;
27383;SDS011;14851;51.166;4.760;2023-05-29T13:57:35;7.95;;;2.88;;
27383;SDS011;14851;51.166;4.760;2023-05-29T14:00:05;8.40;;;2.05;;
27383;SDS011;14851;51.166;4.760;2023-05-29T14:02:31;9.88;;;2.50;;
27383;SDS011;14851;51.166;4.760;2023-05-29T14:04:57;9.23;;;2.70;;
27383;SDS011;14851;51.166;4.760;2023-05-29T14:07:23;5.30;;;1.77;;
27383;SDS011;14851;51.166;4.760;2023-05-29T14:09:53;6.32;;;1.98;;
27383;SDS011;14851;51.166;4.760;2023-05-29T14:12:19;6.78;;;2.42;;
27383;SDS011;14851;51.166;4.760;2023-05-29T14:14:44;5.93;;;2.83;;
27383;SDS011;14851;51.166;4.760;2023-05-29T14:17:10;10.60;;;3.00;;
27383;SDS011;14851;51.166;4.760;2023-05-29T14:19:38;9.82;;;2.55;;
27383;SDS011;14851;51.166;4.760;2023-05-29T14:22:04;8.88;;;2.60;;
27383;SDS011;14851;51.166;4.760;2023-05-29T14:24:31;7.72;;;2.28;;
27383;SDS011;14851;51.166;4.760;2023-05-29T14:26:57;6.40;;;2.13;;
27383;SDS011;14851;51.166;4.760;2023-05-29T14:29:30;9.57;;;3.28;;
27383;SDS011;14851;51.166;4.760;2023-05-29T14:31:56;6.40;;;1.95;;
27383;SDS011;14851;51.166;4.760;2023-05-29T14:34:22;7.97;;;2.38;;
27383;SDS011;14851;51.166;4.760;2023-05-29T14:36:48;7.15;;;2.35;;
27383;SDS011;14851;51.166;4.760;2023-05-29T14:39:14;7.00;;;2.20;;
27383;SDS011;14851;51.166;4.760;2023-05-29T14:41:40;10.27;;;2.30;;
27383;SDS011;14851;51.166;4.760;2023-05-29T14:44:06;6.25;;;2.35;;
27383;SDS011;14851;51.166;4.760;2023-05-29T14:46:32;9.07;;;2.55;;
27383;SDS011;14851;51.166;4.760;2023-05-29T14:48:58;10.95;;;2.78;;
27383;SDS011;14851;51.166;4.760;2023-05-29T14:51:25;9.48;;;1.95;;
27383;SDS011;14851;51.166;4.760;2023-05-29T14:53:52;10.77;;;3.40;;
27383;SDS011;14851;51.166;4.760;2023-05-29T14:56:18;8.55;;;2.45;;
27383;SDS011;14851;51.166;4.760;2023-05-29T14:58:47;9.35;;;2.22;;
27383;SDS011;14851;51.166;4.760;2023-05-29T15:01:20;9.27;;;2.70;;
27383;SDS011;14851;51.166;4.760;2023-05-29T15:03:49;8.03;;;2.63;;
27383;SDS011;14851;51.166;4.760;2023-05-29T15:06:16;8.57;;;2.58;;
27383;SDS011;14851;51.166;4.760;2023-05-29T15:08:42;8.27;;;2.92;;
27383;SDS011;14851;51.166;4.760;2023-05-29T15:11:10;8.25;;;2.55;;
27383;SDS011;14851;51.166;4.760;2023-05-29T15:13:40;7.88;;;2.60;;